sensor_id;sensor_type;location;lat;lon;timestamp;P1;durP1;ratioP1;P2;durP2;ratioP2
46551;SDS011;32278;51.810;4.712;2023-11-19T00:00:25;48.88;;;38.70;;
46551;SDS011;32278;51.810;4.712;2023-11-19T00:02:51;58.55;;;37.40;;
46551;SDS011;32278;51.810;4.712;2023-11-19T00:05:17;51.20;;;38.30;;
46551;SDS011;32278;51.810;4.712;2023-11-19T00:07:43;45.33;;;38.15;;
46551;SDS011;32278;51.810;4.712;2023-11-19T00:10:13;56.92;;;37.83;;
46551;SDS011;32278;51.810;4.712;2023-11-19T00:12:41;50.75;;;37.22;;
46551;SDS011;32278;51.810;4.712;2023-11-19T00:15:07;47.95;;;36.92;;
46551;SDS011;32278;51.810;4.712;2023-11-19T00:17:39;58.60;;;38.92;;
46551;SDS011;32278;51.810;4.712;2023-11-19T00:20:06;53.50;;;37.78;;
46551;SDS011;32278;51.810;4.712;2023-11-19T00:22:32;55.50;;;37.33;;
46551;SDS011;32278;51.810;4.712;2023-11-19T00:24:58;59.95;;;36.55;;
46551;SDS011;32278;51.810;4.712;2023-11-19T00:27:25;52.95;;;36.42;;
46551;SDS011;32278;51.810;4.712;2023-11-19T00:29:51;59.85;;;36.50;;
46551;SDS011;32278;51.810;4.712;2023-11-19T00:32:17;47.28;;;36.83;;
46551;SDS011;32278;51.810;4.712;2023-11-19T00:34:46;57.58;;;37.60;;
46551;SDS011;32278;51.810;4.712;2023-11-19T00:37:13;53.42;;;37.08;;
46551;SDS011;32278;51.810;4.712;2023-11-19T00:39:40;51.95;;;35.40;;
46551;SDS011;32278;51.810;4.712;2023-11-19T00:42:06;53.97;;;35.90;;
46551;SDS011;32278;51.810;4.712;2023-11-19T00:44:32;52.13;;;36.42;;
46551;SDS011;32278;51.810;4.712;2023-11-19T00:46:58;61.72;;;37.00;;
46551;SDS011;32278;51.810;4.712;2023-11-19T00:49:25;49.60;;;37.17;;
46551;SDS011;32278;51.810;4.712;2023-11-19T00:51:51;53.03;;;34.67;;
46551;SDS011;32278;51.810;4.712;2023-11-19T00:54:17;60.53;;;36.38;;
46551;SDS011;32278;51.810;4.712;2023-11-19T00:56:43;65.93;;;38.50;;
46551;SDS011;32278;51.810;4.712;2023-11-19T00:59:09;65.15;;;37.15;;
46551;SDS011;32278;51.810;4.712;2023-11-19T01:01:35;52.63;;;36.28;;
46551;SDS011;32278;51.810;4.712;2023-11-19T01:04:01;57.33;;;36.55;;
46551;SDS011;32278;51.810;4.712;2023-11-19T01:06:28;71.80;;;37.33;;
46551;SDS011;32278;51.810;4.712;2023-11-19T01:08:54;55.38;;;37.13;;
46551;SDS011;32278;51.810;4.712;2023-11-19T01:11:22;66.63;;;37.30;;
46551;SDS011;32278;51.810;4.712;2023-11-19T01:13:48;62.88;;;39.40;;
46551;SDS011;32278;51.810;4.712;2023-11-19T01:16:14;63.38;;;37.17;;
46551;SDS011;32278;51.810;4.712;2023-11-19T01:18:41;65.95;;;36.75;;
46551;SDS011;32278;51.810;4.712;2023-11-19T01:21:07;61.53;;;37.90;;
46551;SDS011;32278;51.810;4.712;2023-11-19T01:23:33;73.60;;;38.22;;
46551;SDS011;32278;51.810;4.712;2023-11-19T01:25:59;84.40;;;40.75;;
46551;SDS011;32278;51.810;4.712;2023-11-19T01:28:25;70.38;;;39.90;;
46551;SDS011;32278;51.810;4.712;2023-11-19T01:30:53;79.50;;;39.95;;
46551;SDS011;32278;51.810;4.712;2023-11-19T01:33:19;77.65;;;39.05;;
46551;SDS011;32278;51.810;4.712;2023-11-19T01:35:46;67.45;;;38.90;;
46551;SDS011;32278;51.810;4.712;2023-11-19T01:38:12;79.50;;;41.95;;
46551;SDS011;32278;51.810;4.712;2023-11-19T01:40:38;78.40;;;40.03;;
46551;SDS011;32278;51.810;4.712;2023-11-19T01:43:04;85.35;;;40.97;;
46551;SDS011;32278;51.810;4.712;2023-11-19T01:45:30;83.47;;;40.53;;
46551;SDS011;32278;51.810;4.712;2023-11-19T01:47:57;91.13;;;41.67;;
46551;SDS011;32278;51.810;4.712;2023-11-19T01:50:24;81.20;;;43.22;;
46551;SDS011;32278;51.810;4.712;2023-11-19T01:52:54;87.15;;;42.03;;
46551;SDS011;32278;51.810;4.712;2023-11-19T01:55:22;84.17;;;40.03;;
46551;SDS011;32278;51.810;4.712;2023-11-19T01:57:49;69.45;;;38.95;;
46551;SDS011;32278;51.810;4.712;2023-11-19T02:00:16;86.85;;;43.40;;
46551;SDS011;32278;51.810;4.712;2023-11-19T02:02:42;84.68;;;41.92;;
46551;SDS011;32278;51.810;4.712;2023-11-19T02:05:10;94.70;;;45.72;;
46551;SDS011;32278;51.810;4.712;2023-11-19T02:07:36;83.57;;;42.10;;
46551;SDS011;32278;51.810;4.712;2023-11-19T02:10:03;85.07;;;45.17;;
46551;SDS011;32278;51.810;4.712;2023-11-19T02:12:30;82.70;;;41.70;;
46551;SDS011;32278;51.810;4.712;2023-11-19T02:14:59;83.53;;;43.08;;
46551;SDS011;32278;51.810;4.712;2023-11-19T02:17:25;88.72;;;45.03;;
46551;SDS011;32278;51.810;4.712;2023-11-19T02:19:52;92.00;;;42.08;;
46551;SDS011;32278;51.810;4.712;2023-11-19T02:22:18;94.07;;;45.53;;
46551;SDS011;32278;51.810;4.712;2023-11-19T02:24:45;96.43;;;44.83;;
46551;SDS011;32278;51.810;4.712;2023-11-19T02:27:15;95.78;;;45.30;;
46551;SDS011;32278;51.810;4.712;2023-11-19T02:29:43;88.28;;;43.05;;
46551;SDS011;32278;51.810;4.712;2023-11-19T02:32:09;94.05;;;44.28;;
46551;SDS011;32278;51.810;4.712;2023-11-19T02:34:35;88.55;;;44.42;;
46551;SDS011;32278;51.810;4.712;2023-11-19T02:37:00;92.28;;;45.60;;
46551;SDS011;32278;51.810;4.712;2023-11-19T02:39:26;94.32;;;44.05;;
46551;SDS011;32278;51.810;4.712;2023-11-19T02:41:53;98.38;;;44.90;;
46551;SDS011;32278;51.810;4.712;2023-11-19T02:44:19;83.20;;;43.78;;
46551;SDS011;32278;51.810;4.712;2023-11-19T02:46:45;90.75;;;45.22;;
46551;SDS011;32278;51.810;4.712;2023-11-19T02:49:13;104.20;;;44.20;;
46551;SDS011;32278;51.810;4.712;2023-11-19T02:51:39;85.32;;;41.78;;
46551;SDS011;32278;51.810;4.712;2023-11-19T02:54:05;94.88;;;43.75;;
46551;SDS011;32278;51.810;4.712;2023-11-19T02:56:31;89.53;;;45.17;;
46551;SDS011;32278;51.810;4.712;2023-11-19T02:59:00;98.57;;;43.67;;
46551;SDS011;32278;51.810;4.712;2023-11-19T03:01:34;87.45;;;42.92;;
46551;SDS011;32278;51.810;4.712;2023-11-19T03:04:01;106.93;;;42.80;;
46551;SDS011;32278;51.810;4.712;2023-11-19T03:06:29;91.70;;;43.00;;
46551;SDS011;32278;51.810;4.712;2023-11-19T03:08:55;98.80;;;44.92;;
46551;SDS011;32278;51.810;4.712;2023-11-19T03:11:22;92.20;;;43.08;;
46551;SDS011;32278;51.810;4.712;2023-11-19T03:13:48;83.35;;;41.50;;
46551;SDS011;32278;51.810;4.712;2023-11-19T03:16:14;84.97;;;42.80;;
46551;SDS011;32278;51.810;4.712;2023-11-19T03:18:41;88.20;;;41.35;;
46551;SDS011;32278;51.810;4.712;2023-11-19T03:21:07;79.05;;;43.05;;
46551;SDS011;32278;51.810;4.712;2023-11-19T03:23:33;85.90;;;44.15;;
46551;SDS011;32278;51.810;4.712;2023-11-19T03:26:00;88.72;;;42.20;;
46551;SDS011;32278;51.810;4.712;2023-11-19T03:28:30;98.80;;;41.70;;
46551;SDS011;32278;51.810;4.712;2023-11-19T03:30:56;86.95;;;41.72;;
46551;SDS011;32278;51.810;4.712;2023-11-19T03:33:22;99.03;;;42.72;;
46551;SDS011;32278;51.810;4.712;2023-11-19T03:35:48;83.97;;;40.85;;
46551;SDS011;32278;51.810;4.712;2023-11-19T03:38:16;84.00;;;40.35;;
46551;SDS011;32278;51.810;4.712;2023-11-19T03:40:42;74.47;;;39.65;;
46551;SDS011;32278;51.810;4.712;2023-11-19T03:43:08;85.30;;;40.22;;
46551;SDS011;32278;51.810;4.712;2023-11-19T03:45:34;84.45;;;41.53;;
46551;SDS011;32278;51.810;4.712;2023-11-19T03:48:01;77.57;;;40.90;;
46551;SDS011;32278;51.810;4.712;2023-11-19T03:50:27;81.88;;;40.67;;
46551;SDS011;32278;51.810;4.712;2023-11-19T03:52:53;95.05;;;40.50;;
46551;SDS011;32278;51.810;4.712;2023-11-19T03:55:19;84.00;;;39.17;;
46551;SDS011;32278;51.810;4.712;2023-11-19T03:57:45;84.75;;;40.28;;
46551;SDS011;32278;51.810;4.712;2023-11-19T04:00:13;77.57;;;40.35;;
46551;SDS011;32278;51.810;4.712;2023-11-19T04:02:40;83.90;;;44.65;;
46551;SDS011;32278;51.810;4.712;2023-11-19T04:05:07;105.65;;;43.30;;
46551;SDS011;32278;51.810;4.712;2023-11-19T04:07:34;90.72;;;41.13;;
46551;SDS011;32278;51.810;4.712;2023-11-19T04:10:01;94.07;;;41.67;;
46551;SDS011;32278;51.810;4.712;2023-11-19T04:12:27;88.32;;;40.72;;
46551;SDS011;32278;51.810;4.712;2023-11-19T04:14:53;98.97;;;42.90;;
46551;SDS011;32278;51.810;4.712;2023-11-19T04:17:19;96.18;;;44.28;;
46551;SDS011;32278;51.810;4.712;2023-11-19T04:19:45;98.50;;;43.63;;
46551;SDS011;32278;51.810;4.712;2023-11-19T04:22:11;82.50;;;45.75;;
46551;SDS011;32278;51.810;4.712;2023-11-19T04:24:37;87.00;;;45.45;;
46551;SDS011;32278;51.810;4.712;2023-11-19T04:27:03;101.30;;;45.10;;
46551;SDS011;32278;51.810;4.712;2023-11-19T04:29:31;94.03;;;44.05;;
46551;SDS011;32278;51.810;4.712;2023-11-19T04:31:57;82.78;;;41.03;;
46551;SDS011;32278;51.810;4.712;2023-11-19T04:34:24;81.93;;;40.70;;
46551;SDS011;32278;51.810;4.712;2023-11-19T04:36:50;91.47;;;42.30;;
46551;SDS011;32278;51.810;4.712;2023-11-19T04:39:16;91.57;;;44.75;;
46551;SDS011;32278;51.810;4.712;2023-11-19T04:41:47;90.60;;;46.63;;
46551;SDS011;32278;51.810;4.712;2023-11-19T04:44:22;97.45;;;46.03;;
46551;SDS011;32278;51.810;4.712;2023-11-19T04:46:48;85.25;;;45.03;;
46551;SDS011;32278;51.810;4.712;2023-11-19T04:49:14;83.38;;;44.53;;
46551;SDS011;32278;51.810;4.712;2023-11-19T04:51:41;81.07;;;43.63;;
46551;SDS011;32278;51.810;4.712;2023-11-19T04:54:10;74.35;;;46.35;;
46551;SDS011;32278;51.810;4.712;2023-11-19T04:56:36;94.68;;;46.80;;
46551;SDS011;32278;51.810;4.712;2023-11-19T04:59:03;85.68;;;43.80;;
46551;SDS011;32278;51.810;4.712;2023-11-19T05:01:30;78.20;;;41.78;;
46551;SDS011;32278;51.810;4.712;2023-11-19T05:03:56;85.18;;;45.20;;
46551;SDS011;32278;51.810;4.712;2023-11-19T05:06:26;85.32;;;42.83;;
46551;SDS011;32278;51.810;4.712;2023-11-19T05:08:53;93.72;;;46.75;;
46551;SDS011;32278;51.810;4.712;2023-11-19T05:11:19;85.07;;;45.85;;
46551;SDS011;32278;51.810;4.712;2023-11-19T05:13:45;100.50;;;46.58;;
46551;SDS011;32278;51.810;4.712;2023-11-19T05:16:14;92.90;;;45.70;;
46551;SDS011;32278;51.810;4.712;2023-11-19T05:18:41;86.18;;;46.15;;
46551;SDS011;32278;51.810;4.712;2023-11-19T05:21:07;100.07;;;47.92;;
46551;SDS011;32278;51.810;4.712;2023-11-19T05:23:33;84.47;;;46.70;;
46551;SDS011;32278;51.810;4.712;2023-11-19T05:26:01;92.22;;;48.90;;
46551;SDS011;32278;51.810;4.712;2023-11-19T05:28:27;99.70;;;48.55;;
46551;SDS011;32278;51.810;4.712;2023-11-19T05:30:53;110.28;;;49.03;;
46551;SDS011;32278;51.810;4.712;2023-11-19T05:33:19;101.45;;;47.30;;
46551;SDS011;32278;51.810;4.712;2023-11-19T05:35:45;97.45;;;48.13;;
46551;SDS011;32278;51.810;4.712;2023-11-19T05:38:11;94.85;;;43.85;;
46551;SDS011;32278;51.810;4.712;2023-11-19T05:40:38;97.05;;;46.80;;
46551;SDS011;32278;51.810;4.712;2023-11-19T05:43:04;100.35;;;45.38;;
46551;SDS011;32278;51.810;4.712;2023-11-19T05:45:31;103.20;;;47.67;;
46551;SDS011;32278;51.810;4.712;2023-11-19T05:47:57;85.47;;;43.50;;
46551;SDS011;32278;51.810;4.712;2023-11-19T05:50:24;102.13;;;46.15;;
46551;SDS011;32278;51.810;4.712;2023-11-19T05:52:50;97.18;;;46.00;;
46551;SDS011;32278;51.810;4.712;2023-11-19T05:55:18;98.07;;;47.22;;
46551;SDS011;32278;51.810;4.712;2023-11-19T05:57:44;89.70;;;45.47;;
46551;SDS011;32278;51.810;4.712;2023-11-19T06:00:10;94.60;;;45.58;;
46551;SDS011;32278;51.810;4.712;2023-11-19T06:02:38;103.60;;;48.08;;
46551;SDS011;32278;51.810;4.712;2023-11-19T06:05:04;89.00;;;45.05;;
46551;SDS011;32278;51.810;4.712;2023-11-19T06:07:32;94.78;;;43.20;;
46551;SDS011;32278;51.810;4.712;2023-11-19T06:09:58;100.60;;;43.92;;
46551;SDS011;32278;51.810;4.712;2023-11-19T06:12:24;80.93;;;41.63;;
46551;SDS011;32278;51.810;4.712;2023-11-19T06:14:52;86.07;;;41.03;;
46551;SDS011;32278;51.810;4.712;2023-11-19T06:17:18;90.57;;;40.97;;
46551;SDS011;32278;51.810;4.712;2023-11-19T06:19:44;96.45;;;40.97;;
46551;SDS011;32278;51.810;4.712;2023-11-19T06:22:10;92.93;;;40.03;;
46551;SDS011;32278;51.810;4.712;2023-11-19T06:24:36;82.95;;;40.08;;
46551;SDS011;32278;51.810;4.712;2023-11-19T06:27:02;89.53;;;39.80;;
46551;SDS011;32278;51.810;4.712;2023-11-19T06:29:29;94.07;;;42.58;;
46551;SDS011;32278;51.810;4.712;2023-11-19T06:31:55;89.25;;;43.60;;
46551;SDS011;32278;51.810;4.712;2023-11-19T06:34:22;75.30;;;40.67;;
46551;SDS011;32278;51.810;4.712;2023-11-19T06:36:48;89.78;;;40.05;;
46551;SDS011;32278;51.810;4.712;2023-11-19T06:39:14;101.72;;;41.58;;
46551;SDS011;32278;51.810;4.712;2023-11-19T06:41:44;96.03;;;43.03;;
46551;SDS011;32278;51.810;4.712;2023-11-19T06:44:10;86.10;;;41.22;;
46551;SDS011;32278;51.810;4.712;2023-11-19T06:46:36;91.68;;;41.05;;
46551;SDS011;32278;51.810;4.712;2023-11-19T06:49:02;77.03;;;38.72;;
46551;SDS011;32278;51.810;4.712;2023-11-19T06:51:28;97.38;;;42.53;;
46551;SDS011;32278;51.810;4.712;2023-11-19T06:53:54;99.35;;;42.78;;
46551;SDS011;32278;51.810;4.712;2023-11-19T06:56:21;83.55;;;39.92;;
46551;SDS011;32278;51.810;4.712;2023-11-19T06:58:47;80.00;;;39.60;;
46551;SDS011;32278;51.810;4.712;2023-11-19T07:01:14;77.80;;;41.22;;
46551;SDS011;32278;51.810;4.712;2023-11-19T07:03:40;95.72;;;40.58;;
46551;SDS011;32278;51.810;4.712;2023-11-19T07:06:06;81.90;;;42.53;;
46551;SDS011;32278;51.810;4.712;2023-11-19T07:08:33;86.63;;;39.33;;
46551;SDS011;32278;51.810;4.712;2023-11-19T07:10:59;82.43;;;43.70;;
46551;SDS011;32278;51.810;4.712;2023-11-19T07:13:25;83.85;;;42.75;;
46551;SDS011;32278;51.810;4.712;2023-11-19T07:15:52;78.18;;;43.22;;
46551;SDS011;32278;51.810;4.712;2023-11-19T07:18:18;73.35;;;37.38;;
46551;SDS011;32278;51.810;4.712;2023-11-19T07:20:47;83.00;;;40.10;;
46551;SDS011;32278;51.810;4.712;2023-11-19T07:23:13;76.22;;;38.15;;
46551;SDS011;32278;51.810;4.712;2023-11-19T07:25:41;77.28;;;39.10;;
46551;SDS011;32278;51.810;4.712;2023-11-19T07:28:08;78.30;;;37.63;;
46551;SDS011;32278;51.810;4.712;2023-11-19T07:30:35;77.88;;;36.38;;
46551;SDS011;32278;51.810;4.712;2023-11-19T07:33:01;87.70;;;40.20;;
46551;SDS011;32278;51.810;4.712;2023-11-19T07:35:29;68.05;;;34.95;;
46551;SDS011;32278;51.810;4.712;2023-11-19T07:37:55;79.70;;;37.80;;
46551;SDS011;32278;51.810;4.712;2023-11-19T07:40:22;82.18;;;38.63;;
46551;SDS011;32278;51.810;4.712;2023-11-19T07:42:48;80.10;;;38.17;;
46551;SDS011;32278;51.810;4.712;2023-11-19T07:45:14;81.55;;;36.05;;
46551;SDS011;32278;51.810;4.712;2023-11-19T07:47:40;78.50;;;38.10;;
46551;SDS011;32278;51.810;4.712;2023-11-19T07:50:07;71.88;;;34.13;;
46551;SDS011;32278;51.810;4.712;2023-11-19T07:52:34;77.32;;;33.28;;
46551;SDS011;32278;51.810;4.712;2023-11-19T07:55:00;70.55;;;33.08;;
46551;SDS011;32278;51.810;4.712;2023-11-19T07:57:27;71.32;;;31.70;;
46551;SDS011;32278;51.810;4.712;2023-11-19T07:59:55;81.00;;;34.10;;
46551;SDS011;32278;51.810;4.712;2023-11-19T08:02:21;71.38;;;32.67;;
46551;SDS011;32278;51.810;4.712;2023-11-19T08:04:49;69.07;;;30.27;;
46551;SDS011;32278;51.810;4.712;2023-11-19T08:07:16;71.90;;;32.60;;
46551;SDS011;32278;51.810;4.712;2023-11-19T08:09:42;69.78;;;33.15;;
46551;SDS011;32278;51.810;4.712;2023-11-19T08:12:09;87.25;;;34.65;;
46551;SDS011;32278;51.810;4.712;2023-11-19T08:14:35;66.38;;;34.75;;
46551;SDS011;32278;51.810;4.712;2023-11-19T08:17:02;76.07;;;36.22;;
46551;SDS011;32278;51.810;4.712;2023-11-19T08:19:28;73.85;;;35.63;;
46551;SDS011;32278;51.810;4.712;2023-11-19T08:21:54;66.53;;;33.30;;
46551;SDS011;32278;51.810;4.712;2023-11-19T08:24:20;70.75;;;34.70;;
46551;SDS011;32278;51.810;4.712;2023-11-19T08:26:45;62.67;;;32.05;;
46551;SDS011;32278;51.810;4.712;2023-11-19T08:29:11;75.68;;;34.08;;
46551;SDS011;32278;51.810;4.712;2023-11-19T08:31:38;65.55;;;30.23;;
46551;SDS011;32278;51.810;4.712;2023-11-19T08:34:04;70.28;;;32.55;;
46551;SDS011;32278;51.810;4.712;2023-11-19T08:36:33;69.75;;;31.67;;
46551;SDS011;32278;51.810;4.712;2023-11-19T08:38:59;69.10;;;32.65;;
46551;SDS011;32278;51.810;4.712;2023-11-19T08:41:25;66.03;;;29.83;;
46551;SDS011;32278;51.810;4.712;2023-11-19T08:43:52;68.57;;;29.08;;
46551;SDS011;32278;51.810;4.712;2023-11-19T08:46:18;72.07;;;28.95;;
46551;SDS011;32278;51.810;4.712;2023-11-19T08:48:44;69.50;;;28.17;;
46551;SDS011;32278;51.810;4.712;2023-11-19T08:51:11;66.22;;;29.40;;
46551;SDS011;32278;51.810;4.712;2023-11-19T08:53:37;87.35;;;35.22;;
46551;SDS011;32278;51.810;4.712;2023-11-19T08:56:03;74.78;;;31.20;;
46551;SDS011;32278;51.810;4.712;2023-11-19T08:58:29;60.60;;;28.23;;
46551;SDS011;32278;51.810;4.712;2023-11-19T09:00:55;62.90;;;27.13;;
46551;SDS011;32278;51.810;4.712;2023-11-19T09:03:22;74.30;;;27.70;;
46551;SDS011;32278;51.810;4.712;2023-11-19T09:05:48;67.80;;;29.90;;
46551;SDS011;32278;51.810;4.712;2023-11-19T09:08:14;60.10;;;23.65;;
46551;SDS011;32278;51.810;4.712;2023-11-19T09:10:40;61.88;;;22.67;;
46551;SDS011;32278;51.810;4.712;2023-11-19T09:13:06;67.75;;;23.33;;
46551;SDS011;32278;51.810;4.712;2023-11-19T09:15:32;58.20;;;21.92;;
46551;SDS011;32278;51.810;4.712;2023-11-19T09:17:58;63.75;;;22.67;;
46551;SDS011;32278;51.810;4.712;2023-11-19T09:20:24;74.13;;;25.52;;
46551;SDS011;32278;51.810;4.712;2023-11-19T09:22:50;64.47;;;20.85;;
46551;SDS011;32278;51.810;4.712;2023-11-19T09:25:16;60.28;;;22.52;;
46551;SDS011;32278;51.810;4.712;2023-11-19T09:27:43;59.83;;;24.85;;
46551;SDS011;32278;51.810;4.712;2023-11-19T09:30:09;65.10;;;23.58;;
46551;SDS011;32278;51.810;4.712;2023-11-19T09:32:35;58.05;;;21.60;;
46551;SDS011;32278;51.810;4.712;2023-11-19T09:35:02;60.72;;;23.27;;
46551;SDS011;32278;51.810;4.712;2023-11-19T09:37:28;62.03;;;27.92;;
46551;SDS011;32278;51.810;4.712;2023-11-19T09:39:54;67.40;;;29.55;;
46551;SDS011;32278;51.810;4.712;2023-11-19T09:42:21;73.72;;;29.15;;
46551;SDS011;32278;51.810;4.712;2023-11-19T09:44:47;61.28;;;22.77;;
46551;SDS011;32278;51.810;4.712;2023-11-19T09:47:13;65.85;;;23.40;;
46551;SDS011;32278;51.810;4.712;2023-11-19T09:49:40;63.00;;;24.10;;
46551;SDS011;32278;51.810;4.712;2023-11-19T09:52:06;67.57;;;22.35;;
46551;SDS011;32278;51.810;4.712;2023-11-19T09:54:32;64.72;;;22.20;;
46551;SDS011;32278;51.810;4.712;2023-11-19T09:56:58;65.03;;;20.63;;
46551;SDS011;32278;51.810;4.712;2023-11-19T09:59:29;61.28;;;21.63;;
46551;SDS011;32278;51.810;4.712;2023-11-19T10:01:56;62.38;;;23.20;;
46551;SDS011;32278;51.810;4.712;2023-11-19T10:04:22;65.03;;;25.30;;
46551;SDS011;32278;51.810;4.712;2023-11-19T10:06:49;64.28;;;25.55;;
46551;SDS011;32278;51.810;4.712;2023-11-19T10:09:15;59.97;;;26.80;;
46551;SDS011;32278;51.810;4.712;2023-11-19T10:11:41;48.88;;;22.20;;
46551;SDS011;32278;51.810;4.712;2023-11-19T10:14:07;58.78;;;21.60;;
46551;SDS011;32278;51.810;4.712;2023-11-19T10:16:34;67.07;;;23.58;;
46551;SDS011;32278;51.810;4.712;2023-11-19T10:19:00;63.92;;;18.02;;
46551;SDS011;32278;51.810;4.712;2023-11-19T10:21:26;56.90;;;14.38;;
46551;SDS011;32278;51.810;4.712;2023-11-19T10:23:56;57.35;;;15.68;;
46551;SDS011;32278;51.810;4.712;2023-11-19T10:26:25;51.63;;;14.93;;
46551;SDS011;32278;51.810;4.712;2023-11-19T10:28:51;55.92;;;16.13;;
46551;SDS011;32278;51.810;4.712;2023-11-19T10:31:17;63.55;;;14.48;;
46551;SDS011;32278;51.810;4.712;2023-11-19T10:33:44;63.67;;;14.00;;
46551;SDS011;32278;51.810;4.712;2023-11-19T10:36:11;53.35;;;13.43;;
46551;SDS011;32278;51.810;4.712;2023-11-19T10:38:37;58.72;;;14.80;;
46551;SDS011;32278;51.810;4.712;2023-11-19T10:41:03;54.30;;;12.48;;
46551;SDS011;32278;51.810;4.712;2023-11-19T10:43:30;45.60;;;13.63;;
46551;SDS011;32278;51.810;4.712;2023-11-19T10:46:09;53.15;;;13.75;;
46551;SDS011;32278;51.810;4.712;2023-11-19T10:48:35;55.67;;;15.18;;
46551;SDS011;32278;51.810;4.712;2023-11-19T10:51:01;54.08;;;15.68;;
46551;SDS011;32278;51.810;4.712;2023-11-19T10:53:32;46.92;;;12.15;;
46551;SDS011;32278;51.810;4.712;2023-11-19T10:55:59;59.80;;;14.30;;
46551;SDS011;32278;51.810;4.712;2023-11-19T10:58:26;47.15;;;12.93;;
46551;SDS011;32278;51.810;4.712;2023-11-19T11:00:55;46.15;;;14.38;;
46551;SDS011;32278;51.810;4.712;2023-11-19T11:03:27;63.13;;;15.02;;
46551;SDS011;32278;51.810;4.712;2023-11-19T11:05:55;64.15;;;15.55;;
46551;SDS011;32278;51.810;4.712;2023-11-19T11:08:23;55.35;;;16.40;;
46551;SDS011;32278;51.810;4.712;2023-11-19T11:10:52;52.03;;;13.98;;
46551;SDS011;32278;51.810;4.712;2023-11-19T11:13:19;39.17;;;13.85;;
46551;SDS011;32278;51.810;4.712;2023-11-19T11:15:48;49.17;;;12.60;;
46551;SDS011;32278;51.810;4.712;2023-11-19T11:18:15;40.08;;;11.63;;
46551;SDS011;32278;51.810;4.712;2023-11-19T11:20:42;30.13;;;9.52;;
46551;SDS011;32278;51.810;4.712;2023-11-19T11:31:02;46.97;;;13.50;;
46551;SDS011;32278;51.810;4.712;2023-11-19T11:38:42;37.25;;;10.85;;
46551;SDS011;32278;51.810;4.712;2023-11-19T11:41:15;41.67;;;11.65;;
46551;SDS011;32278;51.810;4.712;2023-11-19T11:43:47;51.92;;;10.73;;
46551;SDS011;32278;51.810;4.712;2023-11-19T11:48:59;57.72;;;11.50;;
46551;SDS011;32278;51.810;4.712;2023-11-19T11:54:11;53.50;;;11.77;;
46551;SDS011;32278;51.810;4.712;2023-11-19T11:56:37;45.53;;;12.30;;
46551;SDS011;32278;51.810;4.712;2023-11-19T11:59:18;44.05;;;10.60;;
46551;SDS011;32278;51.810;4.712;2023-11-19T12:01:59;44.85;;;11.40;;
46551;SDS011;32278;51.810;4.712;2023-11-19T12:04:26;42.83;;;12.18;;
46551;SDS011;32278;51.810;4.712;2023-11-19T12:07:02;51.47;;;12.15;;
46551;SDS011;32278;51.810;4.712;2023-11-19T12:09:28;46.78;;;10.15;;
46551;SDS011;32278;51.810;4.712;2023-11-19T12:19:59;46.03;;;9.80;;
46551;SDS011;32278;51.810;4.712;2023-11-19T12:22:25;44.55;;;9.23;;
46551;SDS011;32278;51.810;4.712;2023-11-19T12:24:52;46.78;;;11.00;;
46551;SDS011;32278;51.810;4.712;2023-11-19T12:27:19;56.92;;;9.52;;
46551;SDS011;32278;51.810;4.712;2023-11-19T12:29:47;47.53;;;10.25;;
46551;SDS011;32278;51.810;4.712;2023-11-19T12:32:13;50.30;;;9.57;;
46551;SDS011;32278;51.810;4.712;2023-11-19T12:34:39;46.70;;;11.40;;
46551;SDS011;32278;51.810;4.712;2023-11-19T12:37:05;49.55;;;9.65;;
46551;SDS011;32278;51.810;4.712;2023-11-19T12:39:33;57.22;;;10.43;;
46551;SDS011;32278;51.810;4.712;2023-11-19T12:41:59;40.97;;;9.02;;
46551;SDS011;32278;51.810;4.712;2023-11-19T12:44:25;49.47;;;10.73;;
46551;SDS011;32278;51.810;4.712;2023-11-19T12:47:01;44.67;;;9.55;;
46551;SDS011;32278;51.810;4.712;2023-11-19T12:49:27;45.70;;;9.98;;
46551;SDS011;32278;51.810;4.712;2023-11-19T12:51:53;46.22;;;9.38;;
46551;SDS011;32278;51.810;4.712;2023-11-19T12:54:19;44.15;;;9.40;;
46551;SDS011;32278;51.810;4.712;2023-11-19T12:56:53;49.17;;;10.30;;
46551;SDS011;32278;51.810;4.712;2023-11-19T12:59:19;46.05;;;9.00;;
46551;SDS011;32278;51.810;4.712;2023-11-19T13:01:55;30.42;;;7.57;;
46551;SDS011;32278;51.810;4.712;2023-11-19T13:04:21;39.50;;;8.95;;
46551;SDS011;32278;51.810;4.712;2023-11-19T13:06:47;41.92;;;9.05;;
46551;SDS011;32278;51.810;4.712;2023-11-19T13:09:25;44.67;;;8.90;;
46551;SDS011;32278;51.810;4.712;2023-11-19T13:11:52;37.20;;;8.57;;
46551;SDS011;32278;51.810;4.712;2023-11-19T13:14:18;41.65;;;8.80;;
46551;SDS011;32278;51.810;4.712;2023-11-19T13:16:44;47.53;;;9.52;;
46551;SDS011;32278;51.810;4.712;2023-11-19T13:19:11;42.65;;;8.25;;
46551;SDS011;32278;51.810;4.712;2023-11-19T13:21:38;39.17;;;8.93;;
46551;SDS011;32278;51.810;4.712;2023-11-19T13:24:05;52.38;;;9.50;;
46551;SDS011;32278;51.810;4.712;2023-11-19T13:26:31;44.22;;;10.02;;
46551;SDS011;32278;51.810;4.712;2023-11-19T13:28:57;46.58;;;10.05;;
46551;SDS011;32278;51.810;4.712;2023-11-19T13:31:23;41.85;;;9.35;;
46551;SDS011;32278;51.810;4.712;2023-11-19T13:33:49;36.83;;;8.05;;
46551;SDS011;32278;51.810;4.712;2023-11-19T13:36:15;39.25;;;8.15;;
46551;SDS011;32278;51.810;4.712;2023-11-19T13:38:41;42.15;;;8.70;;
46551;SDS011;32278;51.810;4.712;2023-11-19T13:41:09;34.75;;;7.93;;
46551;SDS011;32278;51.810;4.712;2023-11-19T13:43:36;47.47;;;9.85;;
46551;SDS011;32278;51.810;4.712;2023-11-19T13:46:02;49.33;;;8.93;;
46551;SDS011;32278;51.810;4.712;2023-11-19T13:48:28;41.33;;;7.82;;
46551;SDS011;32278;51.810;4.712;2023-11-19T13:50:55;32.60;;;9.15;;
46551;SDS011;32278;51.810;4.712;2023-11-19T13:53:21;38.80;;;8.35;;
46551;SDS011;32278;51.810;4.712;2023-11-19T13:55:48;53.03;;;9.52;;
46551;SDS011;32278;51.810;4.712;2023-11-19T13:58:14;42.00;;;9.00;;
46551;SDS011;32278;51.810;4.712;2023-11-19T14:00:41;40.97;;;7.45;;
46551;SDS011;32278;51.810;4.712;2023-11-19T14:03:08;52.63;;;10.13;;
46551;SDS011;32278;51.810;4.712;2023-11-19T14:05:36;51.85;;;9.02;;
46551;SDS011;32278;51.810;4.712;2023-11-19T14:08:02;43.47;;;8.95;;
46551;SDS011;32278;51.810;4.712;2023-11-19T14:10:28;38.72;;;8.85;;
46551;SDS011;32278;51.810;4.712;2023-11-19T14:12:54;43.92;;;11.13;;
46551;SDS011;32278;51.810;4.712;2023-11-19T14:15:20;43.53;;;8.93;;
46551;SDS011;32278;51.810;4.712;2023-11-19T14:17:46;43.28;;;9.05;;
46551;SDS011;32278;51.810;4.712;2023-11-19T14:20:12;44.85;;;8.85;;
46551;SDS011;32278;51.810;4.712;2023-11-19T14:22:41;41.72;;;9.32;;
46551;SDS011;32278;51.810;4.712;2023-11-19T14:25:08;45.03;;;9.18;;
46551;SDS011;32278;51.810;4.712;2023-11-19T14:27:37;41.53;;;9.00;;
46551;SDS011;32278;51.810;4.712;2023-11-19T14:30:07;47.75;;;9.65;;
46551;SDS011;32278;51.810;4.712;2023-11-19T14:32:35;37.50;;;7.93;;
46551;SDS011;32278;51.810;4.712;2023-11-19T14:35:01;45.47;;;7.93;;
46551;SDS011;32278;51.810;4.712;2023-11-19T14:37:28;36.97;;;8.70;;
46551;SDS011;32278;51.810;4.712;2023-11-19T14:39:55;44.88;;;8.60;;
46551;SDS011;32278;51.810;4.712;2023-11-19T14:42:22;46.42;;;9.60;;
46551;SDS011;32278;51.810;4.712;2023-11-19T14:44:50;47.80;;;8.93;;
46551;SDS011;32278;51.810;4.712;2023-11-19T14:47:17;49.40;;;10.70;;